Impacts METAR Board
IDs:

KLGA - New York/La Guardia, NY, US

Updated at: 0600 UTC 20 Oct 2018
Potential Impact None Slight Moderate High
Time 19/18Z 19/19Z 19/20Z 19/21Z 19/22Z 19/23Z 20/00Z 20/01Z 20/02Z 20/03Z 20/04Z 20/05Z 20/06Z
Temp60 62 62 61 59 59 58 58 58 59 59 58 58
Dewpt31 30 28 31 35 38 40 42 42 41 43 44 44
Altim30.15 30.11 30.08 30.06 30.05 30.04 30.04 29.99 29.98 29.94 29.91 29.87 29.84
VIS10 10 10 10 10 10 10 10 10 10 10 10 10
CIG250 250 230 250 250 250 210 220 220 170 150 140 110
CoverBKNBKNBKNBKNBKNBKNBKNBKNBKNOVCOVCOVCOVC
FltCatVFRVFRVFRVFRVFRVFRVFRVFRVFRVFRVFRVFRVFR
WX--------------------------
WDir210200220230220210220200210210210210210
WSpd9 11 11 13 8 14 11 9 10 17 10 12 10
WGst-- -- 17 -- 16 18 17 -- -- 22 18 -- --
Raw hourly METARs
KLGA 191751Z 21009KT 10SM BKN250 16/M01 A3015 RMK AO2 SLP210 T01561006 10156 20083 58038
KLGA 191851Z 20011KT 10SM BKN250 17/M01 A3011 RMK AO2 SLP195 T01671011
KLGA 191951Z 22011G17KT 10SM BKN230 17/M02 A3008 RMK AO2 SLP185 T01671022
KLGA 192051Z 23013KT 10SM BKN250 16/M01 A3006 RMK AO2 SLP180 T01611006 56030
KLGA 192151Z 22008G16KT 10SM BKN250 15/02 A3005 RMK AO2 SLP176 T01500017
KLGA 192251Z 21014G18KT 10SM FEW180 BKN250 15/03 A3004 RMK AO2 SLP171 T01500033
KLGA 192351Z 22011G17KT 10SM BKN210 14/04 A3004 RMK AO2 SLP171 T01440044 10172 20144 56009
KLGA 200051Z 20009KT 10SM BKN220 14/06 A2999 RMK AO2 SLP156 T01440056
KLGA 200151Z 21010KT 10SM BKN220 14/06 A2998 RMK AO2 SLP150 T01440056
KLGA 200251Z 21017G22KT 10SM BKN170 OVC250 15/05 A2994 RMK AO2 PK WND 20027/0233 SLP137 T01500050 56035
KLGA 200351Z 21010G18KT 10SM BKN150 OVC250 15/06 A2991 RMK AO2 SLP129 T01500061
KLGA 200451Z 21012KT 10SM BKN140 OVC250 14/07 A2987 RMK AO2 SLP115 T01440067 401720072
KLGA 200551Z 21010KT 10SM FEW070 OVC110 14/07 A2984 RMK AO2 SLP106 T01440067 10150 20144 58031



Page loaded:  06:26 UTC  |   11:26 PM Pacific  |   12:26 AM Mountain  |   01:26 AM Central  |   02:26 AM Eastern

 

ADVISORIES

FORECASTS

FORECASTS

OBSERVATIONS

USER TOOLS

ABOUT US